createdAt,value
2022-08-09T00:00:45.385Z,5.20
2022-08-09T00:01:52.549Z,4.50
2022-08-09T00:02:49.966Z,4.80
2022-08-09T00:04:10.859Z,5.00
2022-08-09T00:04:42.993Z,4.90
2022-08-09T00:06:15.426Z,4.80
2022-08-09T00:06:44.287Z,5.10
2022-08-09T00:07:44.915Z,5.10
2022-08-09T00:08:43.004Z,6.10
2022-08-09T00:09:41.966Z,5.00
2022-08-09T00:10:41.956Z,5.20
2022-08-09T00:12:04.084Z,4.50
2022-08-09T00:12:42.999Z,5.40
2022-08-09T00:13:41.937Z,5.50
2022-08-09T00:14:41.943Z,5.10
2022-08-09T00:16:00.038Z,4.90
2022-08-09T00:16:42.920Z,5.10
2022-08-09T00:18:05.840Z,5.50
2022-08-09T00:18:42.906Z,4.90
2022-08-09T00:19:41.917Z,4.70
2022-08-09T00:20:50.137Z,4.50
2022-08-09T00:21:55.662Z,4.80
2022-08-09T00:22:42.876Z,5.00
2022-08-09T00:23:55.642Z,5.00
2022-08-09T00:24:42.884Z,4.90
2022-08-09T00:25:41.863Z,5.60
2022-08-09T00:26:41.844Z,5.10
2022-08-09T00:27:43.306Z,5.50
2022-08-09T00:28:52.573Z,5.80
2022-08-09T00:30:24.429Z,5.00
2022-08-09T00:30:42.820Z,4.60
2022-08-09T00:31:59.839Z,5.30
2022-08-09T00:32:42.803Z,5.40
2022-08-09T00:33:51.206Z,5.30
2022-08-09T00:34:51.930Z,5.50
2022-08-09T00:35:43.716Z,4.90
2022-08-09T00:36:41.896Z,4.70
2022-08-09T00:37:41.780Z,5.00
2022-08-09T00:38:41.771Z,4.90
2022-08-09T00:40:12.668Z,4.80
2022-08-09T00:40:52.995Z,5.20
2022-08-09T00:44:11.190Z,4.70
2022-08-09T00:44:19.180Z,5.20
2022-08-09T00:44:24.570Z,4.80
2022-08-09T00:44:42.734Z,5.20
2022-08-09T00:45:50.679Z,4.80
2022-08-09T00:46:55.515Z,5.10
2022-08-09T00:47:42.713Z,4.80
2022-08-09T00:48:41.705Z,5.00
2022-08-09T00:49:42.703Z,5.80
2022-08-09T00:50:41.693Z,5.50
2022-08-09T00:51:54.476Z,4.80
2022-08-09T00:52:42.684Z,4.80
2022-08-09T00:53:41.683Z,4.40
2022-08-09T00:54:41.675Z,4.70
2022-08-09T00:56:04.669Z,5.10
2022-08-09T00:56:42.657Z,5.10
2022-08-09T00:57:41.644Z,4.90
2022-08-09T00:58:41.660Z,5.00
2022-08-09T00:59:46.685Z,4.90
2022-08-09T01:00:43.630Z,5.20
2022-08-09T01:01:44.818Z,4.80
2022-08-09T01:02:41.616Z,4.80
2022-08-09T01:03:45.715Z,4.70
2022-08-09T01:04:44.109Z,5.20
2022-08-09T01:05:51.411Z,5.10
2022-08-09T01:06:54.666Z,5.50
2022-08-09T01:08:01.101Z,4.70
2022-08-09T01:08:49.450Z,5.10
2022-08-09T01:09:42.584Z,5.10
2022-08-09T01:10:41.555Z,4.70
2022-08-09T01:11:41.562Z,5.10
2022-08-09T01:12:42.551Z,5.20
2022-08-09T01:13:53.538Z,5.50
2022-08-09T01:14:42.535Z,5.00
2022-08-09T01:15:52.587Z,5.30
2022-08-09T01:16:47.435Z,5.20
2022-08-09T01:17:42.523Z,4.80
2022-08-09T01:18:41.515Z,5.50
2022-08-09T01:19:51.729Z,5.50
2022-08-09T01:20:42.520Z,5.10
2022-08-09T01:21:45.079Z,5.50
2022-08-09T01:22:42.483Z,5.50
2022-08-09T01:24:01.868Z,4.80
2022-08-09T01:24:44.094Z,5.00
2022-08-09T01:25:42.490Z,5.10
2022-08-09T01:26:42.458Z,4.60
2022-08-09T01:27:41.447Z,5.00
2022-08-09T01:28:41.435Z,5.40
2022-08-09T01:29:55.254Z,4.80
2022-08-09T01:30:51.825Z,4.50
2022-08-09T01:32:29.526Z,5.00
2022-08-09T01:32:45.340Z,4.70
2022-08-09T01:33:41.407Z,5.60
2022-08-09T01:34:41.399Z,5.60
2022-08-09T01:35:42.264Z,5.00
2022-08-09T01:36:41.395Z,4.70
2022-08-09T01:38:05.562Z,5.10
2022-08-09T01:38:46.310Z,4.90
2022-08-09T01:39:42.517Z,4.90
2022-08-09T01:40:41.363Z,5.20
2022-08-09T01:41:53.451Z,4.60
2022-08-09T01:42:42.389Z,5.70
2022-08-09T01:43:50.577Z,5.50
2022-08-09T01:44:42.336Z,4.70
2022-08-09T01:45:44.817Z,5.30
2022-08-09T01:46:42.387Z,5.40
2022-08-09T01:47:44.829Z,4.80
2022-08-09T01:48:42.312Z,4.90
2022-08-09T01:49:41.303Z,5.00
2022-08-09T01:50:42.292Z,5.00
2022-08-09T01:51:43.025Z,5.20
2022-08-09T01:52:43.324Z,5.20
2022-08-09T01:53:41.898Z,5.40
2022-08-09T01:54:41.267Z,5.20
2022-08-09T01:55:41.235Z,5.00
2022-08-09T01:56:41.246Z,5.30
2022-08-09T01:57:44.328Z,5.10
2022-08-09T01:58:41.238Z,4.70
2022-08-09T01:59:51.652Z,5.20
2022-08-09T02:00:42.267Z,4.90
2022-08-09T02:01:59.278Z,5.50
2022-08-09T02:02:42.219Z,5.00
2022-08-09T02:03:41.212Z,5.10
2022-08-09T02:04:45.386Z,4.90
2022-08-09T02:06:03.244Z,5.20
2022-08-09T02:06:45.437Z,4.90
2022-08-09T02:08:39.248Z,4.70
2022-08-09T02:08:57.916Z,4.30
2022-08-09T02:09:43.148Z,4.90
2022-08-09T02:10:42.799Z,5.00
2022-08-09T02:11:43.966Z,5.20
2022-08-09T02:12:41.140Z,5.20
2022-08-09T02:13:41.129Z,4.80
2022-08-09T02:14:41.124Z,5.00
2022-08-09T02:15:49.354Z,5.00
2022-08-09T02:16:59.947Z,5.30
2022-08-09T02:17:59.794Z,4.90
2022-08-09T02:18:42.970Z,4.90
2022-08-09T02:19:43.188Z,5.30
2022-08-09T02:20:41.082Z,5.90
2022-08-09T02:21:41.084Z,5.20
2022-08-09T02:22:41.327Z,5.50
2022-08-09T02:23:43.157Z,5.40
2022-08-09T02:24:41.063Z,5.30
2022-08-09T02:25:42.578Z,5.30
2022-08-09T02:26:42.671Z,5.50
2022-08-09T02:27:58.368Z,5.20
2022-08-09T02:28:42.032Z,5.80
2022-08-09T02:29:41.019Z,5.60
2022-08-09T02:30:41.549Z,5.10
2022-08-09T02:31:41.009Z,5.70
2022-08-09T02:32:41.004Z,5.60
2022-08-09T02:34:07.298Z,5.80
2022-08-09T02:34:55.684Z,6.10
2022-08-09T02:36:02.025Z,5.50
2022-08-09T02:36:42.209Z,5.70
2022-08-09T02:37:40.977Z,5.00
2022-08-09T02:38:40.963Z,5.30
2022-08-09T02:39:45.089Z,5.50
2022-08-09T02:40:40.986Z,6.00
2022-08-09T02:41:40.932Z,6.20
2022-08-09T02:42:40.932Z,5.80
2022-08-09T02:43:42.556Z,5.10
2022-08-09T02:44:41.912Z,5.80
2022-08-09T02:45:40.904Z,6.10
2022-08-09T02:46:40.894Z,5.70
2022-08-09T02:47:57.673Z,5.70
2022-08-09T02:48:46.148Z,6.10
2022-08-09T02:49:41.374Z,5.70
2022-08-09T02:50:40.868Z,6.00
2022-08-09T02:51:40.907Z,5.70
2022-08-09T02:52:40.875Z,5.90
2022-08-09T02:53:53.147Z,5.70
2022-08-09T02:54:54.536Z,5.80
2022-08-09T02:55:53.694Z,5.90
2022-08-09T02:56:41.822Z,5.80
2022-08-09T02:58:00.320Z,5.90
2022-08-09T02:58:41.812Z,5.90
2022-08-09T02:59:40.799Z,5.60
2022-08-09T03:00:57.984Z,6.00
2022-08-09T03:01:43.184Z,5.90
2022-08-09T03:02:58.411Z,5.50
2022-08-09T03:04:17.774Z,6.00
2022-08-09T03:04:41.791Z,6.10
2022-08-09T03:05:40.783Z,6.00
2022-08-09T03:06:40.756Z,6.00
2022-08-09T03:07:40.748Z,5.90
2022-08-09T03:08:41.740Z,5.80
2022-08-09T03:09:42.548Z,6.10
2022-08-09T03:10:40.723Z,5.80
2022-08-09T03:12:06.629Z,6.00
2022-08-09T03:12:41.708Z,6.10
2022-08-09T03:13:43.465Z,6.30
2022-08-09T03:14:41.698Z,6.00
2022-08-09T03:16:06.650Z,5.60
2022-08-09T03:16:47.745Z,5.80
2022-08-09T03:17:42.680Z,6.20
2022-08-09T03:18:40.663Z,6.10
2022-08-09T03:19:58.093Z,5.80
2022-08-09T03:20:41.656Z,6.10
2022-08-09T03:21:40.651Z,6.10
2022-08-09T03:22:41.891Z,6.10
2022-08-09T03:23:40.623Z,5.70
2022-08-09T03:24:52.357Z,6.20
2022-08-09T03:25:58.725Z,6.20
2022-08-09T03:26:44.949Z,6.30
2022-08-09T03:27:45.028Z,5.80
2022-08-09T03:28:43.605Z,6.20
2022-08-09T03:29:58.167Z,6.10
2022-08-09T03:30:43.544Z,5.80
2022-08-09T03:31:42.589Z,5.70
2022-08-09T03:32:41.577Z,6.30
2022-08-09T03:33:53.607Z,6.30
2022-08-09T03:34:41.548Z,6.30
2022-08-09T03:36:11.384Z,6.20
2022-08-09T03:36:41.536Z,6.30
2022-08-09T03:37:56.620Z,6.40
2022-08-09T03:38:42.820Z,6.10
2022-08-09T03:39:40.561Z,6.20
2022-08-09T03:40:41.500Z,6.70
2022-08-09T03:41:46.001Z,6.00
2022-08-09T03:42:42.889Z,6.40
2022-08-09T03:43:40.502Z,5.80
2022-08-09T03:44:40.463Z,5.90
2022-08-09T03:46:04.474Z,6.50
2022-08-09T03:46:41.456Z,6.30
2022-08-09T03:47:44.118Z,6.30
2022-08-09T03:48:42.989Z,6.50
2022-08-09T03:49:41.431Z,6.40
2022-08-09T03:50:41.416Z,6.20
2022-08-09T03:51:55.267Z,6.20
2022-08-09T03:52:41.784Z,6.50
2022-08-09T03:53:40.401Z,6.30
2022-08-09T03:54:40.399Z,6.30
2022-08-09T03:55:40.870Z,6.50
2022-08-09T03:56:41.240Z,6.60
2022-08-09T03:57:53.419Z,6.30
2022-08-09T03:58:41.362Z,6.60
2022-08-09T03:59:52.941Z,6.70
2022-08-09T04:00:41.350Z,6.30
2022-08-09T04:01:40.348Z,6.80
2022-08-09T04:02:40.333Z,6.50
2022-08-09T04:03:46.219Z,6.90
2022-08-09T04:04:41.335Z,6.60
2022-08-09T04:05:40.705Z,6.60
2022-08-09T04:06:40.301Z,6.40
2022-08-09T04:07:52.958Z,6.20
2022-08-09T04:08:41.290Z,7.20
2022-08-09T04:09:44.480Z,6.40
2022-08-09T04:10:41.278Z,6.50
2022-08-09T04:11:40.272Z,6.80
2022-08-09T04:12:40.273Z,7.00
2022-08-09T04:13:45.099Z,6.30
2022-08-09T04:15:00.963Z,6.20
2022-08-09T04:16:19.267Z,6.20
2022-08-09T04:16:41.228Z,6.50
2022-08-09T04:17:42.256Z,6.50
2022-08-09T04:18:40.222Z,6.10
2022-08-09T04:19:50.854Z,6.60
2022-08-09T04:20:41.210Z,6.00
2022-08-09T04:21:40.369Z,6.70
2022-08-09T04:22:41.217Z,6.40
2022-08-09T04:23:40.181Z,6.40
2022-08-09T04:24:41.179Z,6.50
2022-08-09T04:25:40.169Z,6.20
2022-08-09T04:26:40.153Z,6.80
2022-08-09T04:27:40.142Z,6.40
2022-08-09T04:28:42.357Z,6.80
2022-08-09T04:29:41.135Z,6.50
2022-08-09T04:30:44.833Z,6.20
2022-08-09T04:31:47.310Z,6.10
2022-08-09T04:32:46.662Z,6.30
2022-08-09T04:33:50.182Z,6.10
2022-08-09T04:34:41.105Z,6.30
2022-08-09T04:35:42.364Z,5.80
2022-08-09T04:36:44.955Z,6.10
2022-08-09T04:37:45.992Z,6.50
2022-08-09T04:38:41.063Z,5.90
2022-08-09T04:39:40.718Z,6.20
2022-08-09T04:40:40.070Z,6.30
2022-08-09T04:41:43.573Z,6.50
2022-08-09T04:42:40.034Z,6.50
2022-08-09T04:43:46.500Z,6.20
2022-08-09T04:44:41.046Z,6.60
2022-08-09T04:45:53.012Z,6.60
2022-08-09T04:46:58.340Z,5.90
2022-08-09T04:47:45.254Z,6.60
2022-08-09T04:48:41.010Z,6.60
2022-08-09T04:49:54.338Z,6.00
2022-08-09T04:50:40.973Z,6.50
2022-08-09T04:51:39.963Z,6.30
2022-08-09T04:52:39.961Z,6.10
2022-08-09T04:53:40.946Z,6.10
2022-08-09T04:54:39.952Z,6.10
2022-08-09T04:55:57.124Z,6.40
2022-08-09T04:56:40.946Z,6.50
2022-08-09T04:57:58.747Z,6.90
2022-08-09T04:58:40.921Z,6.30
2022-08-09T04:59:39.933Z,6.50
2022-08-09T05:00:39.911Z,6.70
2022-08-09T05:01:39.906Z,6.30
2022-08-09T05:02:39.899Z,5.80
2022-08-09T05:03:43.822Z,6.10
2022-08-09T05:04:39.912Z,6.30
2022-08-09T05:05:52.732Z,6.20
2022-08-09T05:06:40.870Z,6.50
2022-08-09T05:07:39.865Z,6.40
2022-08-09T05:08:43.956Z,6.30
2022-08-09T05:09:45.292Z,6.40
2022-08-09T05:10:40.822Z,6.30
2022-08-09T05:11:39.834Z,6.40
2022-08-09T05:12:39.826Z,6.00
2022-08-09T05:13:39.841Z,6.50
2022-08-09T05:14:41.234Z,6.50
2022-08-09T05:15:47.646Z,6.50
2022-08-09T05:16:57.998Z,6.80
2022-08-09T05:18:39.450Z,6.40
2022-08-09T05:18:55.349Z,6.10
2022-08-09T05:19:45.860Z,6.20
2022-08-09T05:20:39.770Z,6.70
2022-08-09T05:21:55.202Z,6.40
2022-08-09T05:23:53.573Z,6.70
2022-08-09T05:23:55.733Z,6.20
2022-08-09T05:24:40.761Z,6.80
2022-08-09T05:25:39.733Z,6.20
2022-08-09T05:26:45.569Z,5.80
2022-08-09T05:27:45.616Z,6.00
2022-08-09T05:28:40.700Z,6.30
2022-08-09T05:29:39.713Z,6.00
2022-08-09T05:30:47.814Z,6.00
2022-08-09T05:31:46.375Z,6.10
2022-08-09T05:32:40.672Z,6.50
2022-08-09T05:33:42.624Z,6.20
2022-08-09T05:34:42.941Z,6.50
2022-08-09T05:35:46.712Z,5.70
2022-08-09T05:36:40.652Z,5.60
2022-08-09T05:37:47.680Z,5.90
2022-08-09T05:38:40.629Z,5.90
2022-08-09T05:39:43.510Z,5.50
2022-08-09T05:40:39.626Z,5.50
2022-08-09T05:41:39.613Z,5.70
2022-08-09T05:42:39.610Z,5.60
2022-08-09T05:43:40.722Z,5.30
2022-08-09T05:44:40.597Z,5.40
2022-08-09T05:45:43.641Z,5.40
2022-08-09T05:46:40.587Z,5.80
2022-08-09T05:47:51.611Z,5.20
2022-08-09T05:48:40.565Z,5.40
2022-08-09T05:50:25.765Z,5.60
2022-08-09T05:50:51.388Z,5.20
2022-08-09T05:51:42.796Z,5.50
2022-08-09T05:52:39.526Z,5.60
2022-08-09T05:53:56.925Z,5.80
2022-08-09T05:54:41.522Z,5.30
2022-08-09T05:55:39.512Z,5.30
2022-08-09T05:56:39.537Z,5.60
2022-08-09T05:57:55.611Z,5.60
2022-08-09T05:58:40.490Z,5.60
2022-08-09T05:59:39.485Z,5.50
2022-08-09T06:00:39.492Z,5.40
2022-08-09T06:01:42.641Z,5.30
2022-08-09T06:02:39.536Z,5.30
2022-08-09T06:03:43.715Z,5.40
2022-08-09T06:04:44.513Z,5.50
2022-08-09T06:05:57.803Z,5.20
2022-08-09T06:06:45.109Z,5.30
2022-08-09T06:07:40.431Z,5.40
2022-08-09T06:08:39.426Z,5.00
2022-08-09T06:09:53.963Z,5.10
2022-08-09T06:10:40.416Z,5.10
2022-08-09T06:11:40.954Z,5.20
2022-08-09T06:12:40.389Z,5.10
2022-08-09T06:13:39.376Z,5.00
2022-08-09T06:14:39.383Z,5.30
2022-08-09T06:15:39.380Z,5.10
2022-08-09T06:16:39.362Z,4.60
2022-08-09T06:17:40.202Z,5.00
2022-08-09T06:18:39.348Z,4.90
2022-08-09T06:19:39.342Z,5.10
2022-08-09T06:20:39.331Z,5.20
2022-08-09T06:21:39.647Z,5.10
2022-08-09T06:22:40.321Z,4.80
2022-08-09T06:23:58.890Z,4.90
2022-08-09T06:24:40.308Z,4.60
2022-08-09T06:25:39.308Z,4.90
2022-08-09T06:26:39.309Z,4.80
2022-08-09T06:27:43.225Z,4.20
2022-08-09T06:28:43.189Z,4.70
2022-08-09T06:29:48.323Z,4.50
2022-08-09T06:30:40.265Z,4.40
2022-08-09T06:32:17.253Z,4.70
2022-08-09T06:32:59.428Z,4.60
2022-08-09T06:33:42.056Z,4.60
2022-08-09T06:34:40.245Z,4.70
2022-08-09T06:35:57.334Z,4.60
2022-08-09T06:36:43.909Z,4.10
2022-08-09T06:37:53.052Z,4.40
2022-08-09T06:38:43.925Z,4.40
2022-08-09T06:39:57.664Z,4.30
2022-08-09T06:40:40.255Z,4.70
2022-08-09T06:42:07.821Z,4.40
2022-08-09T06:42:44.809Z,4.20
2022-08-09T06:43:39.731Z,4.40
2022-08-09T06:44:39.194Z,4.30
2022-08-09T06:46:06.518Z,4.10
2022-08-09T06:46:41.174Z,3.90
2022-08-09T06:47:41.817Z,4.40
2022-08-09T06:48:42.818Z,4.20
2022-08-09T06:50:11.343Z,4.20
2022-08-09T06:50:40.154Z,3.90
2022-08-09T06:51:40.048Z,4.30
2022-08-09T06:52:39.121Z,4.40
2022-08-09T06:53:39.126Z,4.30
2022-08-09T06:54:39.112Z,3.70
2022-08-09T06:55:39.094Z,4.00
2022-08-09T06:56:39.106Z,4.10
2022-08-09T06:58:01.783Z,4.30
2022-08-09T07:00:47.653Z,4.00
2022-08-09T07:00:51.496Z,4.10
2022-08-09T07:00:55.468Z,4.00
2022-08-09T07:01:57.760Z,3.80
2022-08-09T07:02:40.100Z,3.50
2022-08-09T07:03:39.700Z,4.10
2022-08-09T07:04:40.045Z,4.20
2022-08-09T07:05:58.406Z,4.30
2022-08-09T07:06:40.021Z,3.90
2022-08-09T07:08:00.693Z,4.00
2022-08-09T07:08:40.014Z,4.20
2022-08-09T07:09:55.565Z,3.90
2022-08-09T07:10:40.005Z,3.60
2022-08-09T07:11:52.213Z,3.60
2022-08-09T07:12:41.252Z,3.70
2022-08-09T07:13:45.294Z,3.60
2022-08-09T07:14:39.977Z,4.20
2022-08-09T07:16:39.286Z,3.60
2022-08-09T07:16:47.877Z,4.50
2022-08-09T07:17:56.250Z,4.00
2022-08-09T07:18:39.951Z,4.00
2022-08-09T07:19:38.949Z,3.90
2022-08-09T07:20:39.561Z,3.70
2022-08-09T07:21:38.923Z,4.00
2022-08-09T07:22:46.593Z,3.70
2022-08-09T07:23:56.456Z,3.60
2022-08-09T07:24:44.370Z,3.80
2022-08-09T07:25:43.459Z,3.50
2022-08-09T07:26:38.901Z,3.80
2022-08-09T07:27:43.084Z,3.60
2022-08-09T07:29:08.199Z,3.70
2022-08-09T07:29:42.668Z,3.50
2022-08-09T07:30:38.861Z,3.60
2022-08-09T07:31:45.010Z,3.90
2022-08-09T07:32:40.202Z,3.70
2022-08-09T07:33:52.811Z,3.70
2022-08-09T07:34:39.857Z,3.40
2022-08-09T07:35:53.227Z,3.70
2022-08-09T07:36:39.837Z,3.70
2022-08-09T07:37:43.309Z,3.20
2022-08-09T07:38:39.821Z,3.50
2022-08-09T07:39:41.617Z,3.90
2022-08-09T07:41:08.050Z,3.90
2022-08-09T07:41:40.803Z,3.70
2022-08-09T07:42:38.793Z,3.70
2022-08-09T07:43:41.352Z,3.60
2022-08-09T07:44:53.052Z,3.50
2022-08-09T07:45:40.919Z,3.60
2022-08-09T07:46:39.765Z,3.50
2022-08-09T07:47:49.403Z,3.50
2022-08-09T07:48:39.759Z,3.70
2022-08-09T07:50:05.208Z,3.30
2022-08-09T07:50:40.025Z,3.40
2022-08-09T07:52:04.771Z,3.30
2022-08-09T07:52:39.730Z,3.70
2022-08-09T07:54:04.366Z,3.60
2022-08-09T07:54:39.722Z,3.10
2022-08-09T07:55:41.441Z,3.50
2022-08-09T07:56:44.903Z,3.20
2022-08-09T07:57:46.666Z,3.40
2022-08-09T07:58:39.710Z,3.60
2022-08-09T07:59:51.047Z,3.40
2022-08-09T08:00:55.551Z,3.50
2022-08-09T08:01:39.821Z,3.50
2022-08-09T08:02:42.634Z,3.40
2022-08-09T08:03:38.662Z,3.30
2022-08-09T08:04:38.670Z,3.50
2022-08-09T08:05:53.897Z,3.30
2022-08-09T08:06:55.970Z,3.60
2022-08-09T08:08:43.398Z,3.30
2022-08-09T08:09:02.414Z,3.10
2022-08-09T08:09:51.626Z,3.20
2022-08-09T08:10:39.617Z,3.40
2022-08-09T08:12:11.531Z,3.50
2022-08-09T08:12:42.292Z,4.40
2022-08-09T08:13:39.930Z,3.30
2022-08-09T08:14:39.599Z,3.60
2022-08-09T08:15:39.441Z,3.50
2022-08-09T08:16:39.688Z,3.90
2022-08-09T08:17:54.499Z,3.40
2022-08-09T08:18:39.569Z,3.40
2022-08-09T08:19:38.548Z,4.00
2022-08-09T08:20:38.553Z,4.30
2022-08-09T08:21:39.922Z,4.50
2022-08-09T08:22:39.585Z,3.70
2022-08-09T08:23:38.549Z,3.90
2022-08-09T08:24:40.597Z,3.40
2022-08-09T08:25:44.029Z,4.30
2022-08-09T08:26:54.914Z,3.80
2022-08-09T08:27:40.609Z,3.50
2022-08-09T08:28:38.506Z,3.50
2022-08-09T08:29:39.424Z,3.50
2022-08-09T08:30:39.492Z,3.30
2022-08-09T08:32:03.647Z,3.50
2022-08-09T08:32:52.602Z,3.90
2022-08-09T08:33:49.733Z,3.40
2022-08-09T08:34:39.477Z,3.70
2022-08-09T08:35:58.537Z,3.60
2022-08-09T08:36:40.132Z,4.10
2022-08-09T08:37:41.025Z,3.40
2022-08-09T08:38:38.474Z,3.50
2022-08-09T08:39:44.292Z,3.30
2022-08-09T08:40:39.447Z,3.40
2022-08-09T08:41:50.254Z,3.30
2022-08-09T08:42:39.428Z,3.30
2022-08-09T08:43:38.417Z,3.30
2022-08-09T08:44:39.611Z,3.40
2022-08-09T08:45:38.417Z,3.30
2022-08-09T08:46:51.001Z,3.30
2022-08-09T08:47:42.810Z,3.40
2022-08-09T08:48:39.390Z,3.30
2022-08-09T08:49:47.108Z,3.20
2022-08-09T08:50:39.417Z,3.20
2022-08-09T08:51:41.550Z,3.10
2022-08-09T08:52:59.731Z,3.20
2022-08-09T08:53:40.373Z,3.40
2022-08-09T08:54:39.369Z,3.00
2022-08-09T08:55:38.369Z,3.20
2022-08-09T08:56:38.358Z,3.10
2022-08-09T08:57:38.344Z,3.20
2022-08-09T08:58:38.337Z,3.00
2022-08-09T08:59:46.767Z,3.10
2022-08-09T09:00:39.339Z,3.50
2022-08-09T09:01:52.235Z,3.40
2022-08-09T09:02:39.708Z,3.10
2022-08-09T09:03:38.464Z,3.00
2022-08-09T09:04:47.827Z,3.10
2022-08-09T09:05:58.305Z,3.40
2022-08-09T09:06:39.297Z,3.60
2022-08-09T09:07:42.484Z,3.10
2022-08-09T09:08:42.279Z,3.20
2022-08-09T09:09:57.968Z,3.30
2022-08-09T09:10:39.272Z,3.40
2022-08-09T09:11:38.408Z,3.00
2022-08-09T09:12:38.285Z,3.10
2022-08-09T09:13:55.158Z,3.30
2022-08-09T09:14:39.248Z,3.10
2022-08-09T09:15:38.276Z,3.20
2022-08-09T09:16:38.245Z,3.10
2022-08-09T09:17:48.626Z,3.30
2022-08-09T09:18:39.258Z,3.20
2022-08-09T09:19:41.278Z,3.10
2022-08-09T09:20:39.244Z,2.90
2022-08-09T09:21:43.216Z,3.10
2022-08-09T09:22:39.370Z,3.50
2022-08-09T09:23:38.228Z,3.10
2022-08-09T09:24:38.915Z,3.10
2022-08-09T09:26:01.564Z,3.00
2022-08-09T09:26:39.188Z,3.00
2022-08-09T09:28:06.483Z,3.00
2022-08-09T09:29:04.099Z,3.10
2022-08-09T09:30:11.434Z,3.20
2022-08-09T09:30:40.871Z,3.00
2022-08-09T09:32:06.956Z,2.90
2022-08-09T09:32:39.204Z,3.10
2022-08-09T09:33:44.306Z,3.00
2022-08-09T09:34:39.148Z,2.80
2022-08-09T09:35:39.158Z,3.40
2022-08-09T09:36:38.141Z,2.90
2022-08-09T09:37:40.364Z,3.00
2022-08-09T09:38:38.117Z,3.20
2022-08-09T09:39:54.634Z,3.20
2022-08-09T09:40:39.124Z,3.30
2022-08-09T09:41:49.323Z,3.30
2022-08-09T09:42:39.100Z,3.20
2022-08-09T09:43:41.623Z,3.10
2022-08-09T09:44:39.096Z,2.90
2022-08-09T09:45:56.950Z,3.30
2022-08-09T09:46:43.020Z,3.10
2022-08-09T09:47:47.613Z,3.20
2022-08-09T09:48:41.094Z,3.10
2022-08-09T09:50:13.380Z,3.00
2022-08-09T09:50:39.057Z,3.00
2022-08-09T09:51:40.445Z,3.20
2022-08-09T09:52:38.063Z,3.30
2022-08-09T09:53:57.521Z,3.00
2022-08-09T09:54:39.053Z,3.30
2022-08-09T09:55:38.048Z,3.10
2022-08-09T09:56:38.045Z,3.10
2022-08-09T09:58:01.029Z,3.10
2022-08-09T09:58:39.013Z,2.90
2022-08-09T09:59:38.018Z,3.00
2022-08-09T10:00:38.085Z,3.00
2022-08-09T10:01:40.708Z,3.20
2022-08-09T10:02:39.028Z,3.10
2022-08-09T10:03:38.063Z,3.00
2022-08-09T10:04:38.045Z,3.20
2022-08-09T10:06:03.703Z,3.00
2022-08-09T10:06:38.988Z,3.10
2022-08-09T10:07:37.984Z,3.20
2022-08-09T10:08:54.162Z,3.30
2022-08-09T10:09:42.794Z,3.10
2022-08-09T10:10:37.977Z,3.00
2022-08-09T10:11:58.987Z,3.10
2022-08-09T10:12:43.569Z,3.10
2022-08-09T10:13:45.142Z,2.90
2022-08-09T10:14:38.960Z,2.80
2022-08-09T10:16:09.175Z,2.80
2022-08-09T10:16:58.092Z,2.90
2022-08-09T10:17:56.567Z,3.40
2022-08-09T10:18:38.937Z,3.20
2022-08-09T10:19:38.937Z,3.00
2022-08-09T10:20:44.661Z,3.10
2022-08-09T10:21:38.920Z,3.70
2022-08-09T10:22:40.907Z,3.60
2022-08-09T10:23:37.937Z,3.30
2022-08-09T10:24:37.906Z,3.10
2022-08-09T10:26:04.436Z,3.30
2022-08-09T10:26:38.892Z,3.10
2022-08-09T10:27:38.887Z,2.70
2022-08-09T10:28:38.997Z,2.90
2022-08-09T10:30:43.980Z,3.10
2022-08-09T10:32:37.455Z,2.90
2022-08-09T10:32:42.338Z,3.00
2022-08-09T10:34:09.867Z,2.70
2022-08-09T10:34:40.464Z,3.00
2022-08-09T10:35:37.853Z,2.70
2022-08-09T10:36:37.840Z,2.70
2022-08-09T10:37:38.339Z,2.90
2022-08-09T10:38:57.037Z,2.80
2022-08-09T10:39:40.760Z,2.80
2022-08-09T10:40:41.124Z,2.60
2022-08-09T10:41:39.816Z,2.70
2022-08-09T10:42:37.817Z,2.90
2022-08-09T10:43:50.661Z,2.90
2022-08-09T10:44:39.881Z,2.80
2022-08-09T10:45:49.426Z,2.60
2022-08-09T10:46:54.260Z,2.70
2022-08-09T10:48:20.265Z,2.70
2022-08-09T10:48:38.789Z,2.90
2022-08-09T10:49:46.935Z,2.80
2022-08-09T10:50:38.790Z,2.70
2022-08-09T10:51:41.361Z,3.00
2022-08-09T10:52:38.076Z,2.50
2022-08-09T10:53:39.372Z,2.60
2022-08-09T10:54:37.754Z,2.60
2022-08-09T10:55:55.176Z,2.70
2022-08-09T10:56:38.794Z,2.80
2022-08-09T10:57:38.018Z,2.60
2022-08-09T10:58:37.734Z,2.90
2022-08-09T10:59:43.166Z,2.60
2022-08-09T11:00:41.685Z,2.70
2022-08-09T11:03:13.532Z,2.70
2022-08-09T11:03:16.239Z,2.60
2022-08-09T11:03:51.499Z,2.60
2022-08-09T11:04:55.548Z,2.60
2022-08-09T11:05:38.750Z,2.60
2022-08-09T11:06:38.690Z,2.40
2022-08-09T11:07:57.615Z,2.50
2022-08-09T11:08:43.749Z,2.60
2022-08-09T11:09:38.683Z,2.50
2022-08-09T11:10:37.679Z,2.70
2022-08-09T11:11:37.682Z,2.30
2022-08-09T11:12:38.694Z,2.60
2022-08-09T11:13:50.942Z,2.70
2022-08-09T11:14:38.662Z,2.50
2022-08-09T11:15:38.356Z,2.60
2022-08-09T11:16:38.646Z,2.80
2022-08-09T11:17:41.979Z,2.80
2022-08-09T11:18:37.682Z,2.30
2022-08-09T11:20:07.916Z,2.50
2022-08-09T11:20:38.639Z,2.40
2022-08-09T11:21:37.623Z,2.50
2022-08-09T11:22:37.797Z,2.60
2022-08-09T11:23:37.630Z,2.40
2022-08-09T11:24:37.612Z,2.60
2022-08-09T11:25:47.906Z,2.60
2022-08-09T11:26:38.602Z,2.50
2022-08-09T11:28:03.715Z,2.80
2022-08-09T11:28:56.518Z,2.40
2022-08-09T11:30:04.676Z,2.80
2022-08-09T11:30:38.674Z,2.80
2022-08-09T11:31:38.575Z,2.70
2022-08-09T11:32:38.570Z,2.70
2022-08-09T11:33:37.598Z,2.90
2022-08-09T11:34:37.559Z,2.60
2022-08-09T11:35:49.105Z,2.60
2022-08-09T11:36:38.554Z,2.60
2022-08-09T11:37:40.959Z,2.80
2022-08-09T11:38:41.226Z,2.70
2022-08-09T11:39:38.579Z,2.70
2022-08-09T11:40:37.539Z,2.50
2022-08-09T11:41:40.337Z,2.40
2022-08-09T11:42:37.550Z,2.90
2022-08-09T11:43:37.531Z,2.60
2022-08-09T11:44:37.547Z,2.60
2022-08-09T11:45:42.097Z,2.30
2022-08-09T11:46:38.518Z,2.70
2022-08-09T11:47:37.512Z,2.60
2022-08-09T11:48:37.499Z,2.70
2022-08-09T11:49:42.891Z,2.60
2022-08-09T11:50:56.897Z,2.60
2022-08-09T11:53:00.919Z,2.50
2022-08-09T11:53:03.786Z,2.70
2022-08-09T11:54:00.550Z,2.40
2022-08-09T11:54:38.486Z,2.70
2022-08-09T11:55:53.952Z,2.40
2022-08-09T11:56:47.854Z,2.70
2022-08-09T11:57:59.967Z,2.40
2022-08-09T11:58:38.452Z,2.80
2022-08-09T11:59:38.478Z,2.50
2022-08-09T12:00:37.444Z,2.70
2022-08-09T12:02:34.817Z,2.40
2022-08-09T12:02:40.643Z,2.70
2022-08-09T12:03:56.831Z,2.70
2022-08-09T12:04:38.495Z,2.40
2022-08-09T12:05:42.183Z,2.60
2022-08-09T12:06:39.406Z,2.80
2022-08-09T12:07:41.962Z,2.80
2022-08-09T12:08:37.401Z,2.90
2022-08-09T12:09:37.388Z,2.60
2022-08-09T12:10:39.882Z,3.00
2022-08-09T12:11:37.524Z,2.70
2022-08-09T12:12:39.472Z,3.00
2022-08-09T12:14:08.059Z,2.60
2022-08-09T12:15:03.586Z,2.80
2022-08-09T12:15:49.205Z,2.70
2022-08-09T12:16:39.931Z,2.50
2022-08-09T12:17:42.950Z,3.00
2022-08-09T12:18:38.347Z,2.80
2022-08-09T12:19:37.347Z,2.60
2022-08-09T12:20:37.347Z,2.80
2022-08-09T12:21:38.367Z,2.40
2022-08-09T12:22:37.331Z,2.70
2022-08-09T12:23:56.395Z,2.50
2022-08-09T12:24:39.104Z,2.50
2022-08-09T12:25:38.326Z,2.60
2022-08-09T12:26:39.325Z,2.60
2022-08-09T12:29:09.712Z,2.40
2022-08-09T12:29:12.696Z,2.50
2022-08-09T12:29:52.403Z,2.60
2022-08-09T12:30:39.250Z,2.60
2022-08-09T12:32:01.705Z,2.70
2022-08-09T12:32:40.913Z,2.70
2022-08-09T12:33:58.687Z,2.60
2022-08-09T12:34:38.278Z,2.60
2022-08-09T12:35:40.223Z,2.90
2022-08-09T12:36:38.276Z,2.80
2022-08-09T12:37:44.317Z,2.80
2022-08-09T12:38:38.832Z,2.60
2022-08-09T12:39:37.725Z,2.70
2022-08-09T12:40:37.235Z,2.60
2022-08-09T12:41:40.152Z,2.70
2022-08-09T12:42:38.228Z,2.60
2022-08-09T12:44:06.625Z,2.70
2022-08-09T12:44:38.214Z,2.60
2022-08-09T12:45:38.225Z,2.60
2022-08-09T12:46:37.196Z,2.90
2022-08-09T12:47:45.068Z,2.70
2022-08-09T12:48:38.488Z,2.80
2022-08-09T12:49:37.202Z,2.60
2022-08-09T12:50:37.322Z,2.60
2022-08-09T12:52:00.916Z,2.60
2022-08-09T12:52:44.258Z,2.50
2022-08-09T12:53:38.751Z,2.70
2022-08-09T12:54:37.153Z,2.60
2022-08-09T12:56:16.241Z,3.00
2022-08-09T12:56:43.100Z,2.50
2022-08-09T12:57:38.594Z,2.60
2022-08-09T12:58:42.534Z,2.70
2022-08-09T12:59:40.058Z,2.50
2022-08-09T13:00:38.119Z,2.60
2022-08-09T13:01:38.145Z,2.90
2022-08-09T13:02:38.108Z,2.90
2022-08-09T13:03:57.039Z,3.10
2022-08-09T13:04:38.895Z,3.20
2022-08-09T13:05:52.497Z,3.10
2022-08-09T13:06:38.977Z,3.40
2022-08-09T13:07:51.171Z,3.20
2022-08-09T13:08:40.690Z,2.90
2022-08-09T13:09:40.793Z,2.80
2022-08-09T13:10:38.059Z,2.50
2022-08-09T13:11:39.232Z,2.60
2022-08-09T13:12:40.018Z,2.30
2022-08-09T13:14:42.089Z,2.60
2022-08-09T13:14:44.340Z,2.60
2022-08-09T13:15:38.039Z,2.60
2022-08-09T13:16:37.022Z,2.70
2022-08-09T13:18:03.642Z,2.60
2022-08-09T13:18:38.015Z,2.90
2022-08-09T13:20:09.678Z,2.70